createdAt,value
2018-06-15T03:52:11.604Z,11.00
2018-06-15T03:57:14.218Z,11.20
2018-06-15T04:02:17.102Z,11.30
2018-06-15T04:07:19.779Z,11.40
2018-06-15T04:12:23.308Z,11.50
2018-06-15T04:17:25.896Z,11.60
2018-06-15T04:22:28.486Z,11.70
2018-06-15T04:27:31.094Z,11.90
2018-06-15T04:32:33.723Z,12.10
2018-06-15T04:37:36.324Z,12.20
2018-06-15T04:42:38.963Z,12.30
2018-06-15T04:47:41.914Z,12.40
2018-06-15T04:52:44.526Z,12.60
2018-06-15T04:57:47.206Z,12.80
2018-06-15T05:02:49.810Z,13.10
2018-06-15T05:07:53.371Z,13.30
2018-06-15T05:12:55.966Z,13.60
2018-06-15T05:17:58.671Z,13.90
2018-06-15T05:23:01.299Z,14.10
2018-06-15T05:28:03.980Z,14.20
2018-06-15T05:33:06.606Z,14.20
2018-06-15T05:38:09.259Z,14.50
2018-06-15T05:43:11.892Z,14.60
2018-06-15T05:48:15.672Z,14.90
2018-06-15T05:53:19.559Z,15.20
2018-06-15T05:58:22.225Z,15.50
2018-06-15T06:03:24.838Z,15.70
2018-06-15T06:08:29.750Z,15.90
2018-06-15T06:13:32.550Z,16.10
2018-06-15T06:18:35.199Z,16.20
2018-06-15T06:23:38.102Z,16.50
2018-06-15T06:28:40.736Z,17.00
2018-06-15T06:33:43.325Z,17.30
2018-06-15T06:38:45.934Z,17.50
2018-06-15T06:43:49.117Z,17.70
2018-06-15T06:48:51.735Z,18.10
2018-06-15T06:53:54.379Z,18.00
2018-06-15T06:58:57.071Z,18.20
2018-06-15T07:03:59.690Z,18.10
2018-06-15T07:09:03.010Z,18.40
2018-06-15T07:14:05.760Z,18.80
2018-06-15T07:19:09.312Z,18.70
2018-06-15T07:24:11.938Z,18.70
2018-06-15T07:29:14.587Z,18.90
2018-06-15T07:34:17.173Z,18.70
2018-06-15T07:39:20.210Z,18.80
2018-06-15T07:44:22.826Z,19.30
2018-06-15T07:49:25.427Z,19.40
2018-06-15T07:54:28.020Z,19.60
2018-06-15T07:59:30.650Z,19.60
2018-06-15T08:04:33.274Z,19.70
2018-06-15T08:09:35.903Z,19.50
2018-06-15T08:14:38.522Z,19.60
2018-06-15T08:19:41.163Z,19.80
2018-06-15T08:24:43.779Z,20.10
2018-06-15T08:29:46.423Z,20.40
2018-06-15T08:34:49.038Z,20.60
2018-06-15T08:39:51.647Z,21.00
2018-06-15T08:44:54.315Z,21.00
2018-06-15T08:49:56.935Z,21.60
2018-06-15T08:54:59.598Z,22.10
2018-06-15T09:00:02.228Z,22.40
2018-06-15T09:05:05.458Z,22.80
2018-06-15T09:10:08.188Z,22.80
2018-06-15T09:15:10.942Z,23.50
2018-06-15T09:20:13.575Z,24.10
2018-06-15T09:25:16.314Z,24.50
2018-06-15T09:30:18.922Z,24.60
2018-06-15T09:35:21.543Z,24.60
2018-06-15T09:40:24.231Z,24.60
2018-06-15T09:45:26.863Z,24.90
2018-06-15T09:50:29.695Z,24.90
2018-06-15T09:55:32.614Z,25.40
2018-06-15T10:00:40.895Z,25.50
2018-06-15T10:05:43.679Z,25.40
2018-06-15T10:10:46.363Z,25.60
2018-06-15T10:15:49.012Z,25.90
2018-06-15T10:20:51.647Z,25.80
2018-06-15T10:25:54.303Z,25.90
2018-06-15T10:30:56.970Z,27.70
2018-06-15T10:35:59.592Z,26.70
2018-06-15T10:41:02.199Z,27.10
2018-06-15T10:51:07.670Z,26.80
2018-06-15T10:56:10.837Z,27.10
2018-06-15T11:01:13.638Z,27.60
2018-06-15T11:06:16.286Z,28.60
2018-06-15T11:11:22.583Z,28.90
2018-06-15T11:21:27.824Z,28.70
2018-06-15T11:26:30.435Z,28.00
2018-06-15T11:31:33.085Z,28.10
2018-06-15T11:36:35.731Z,27.60
2018-06-15T11:41:38.436Z,27.90
2018-06-15T11:46:41.067Z,29.00
2018-06-15T11:51:43.838Z,30.80
2018-06-15T11:56:46.549Z,32.40
2018-06-15T12:01:49.254Z,32.00
2018-06-15T12:06:51.913Z,32.00
2018-06-15T12:11:54.564Z,31.80
2018-06-15T12:16:57.200Z,32.10
2018-06-15T12:21:59.891Z,31.70
2018-06-15T12:27:02.824Z,30.60
2018-06-15T12:32:05.474Z,32.00
2018-06-15T12:37:08.427Z,35.00
2018-06-15T12:42:11.057Z,36.10
2018-06-15T12:47:13.735Z,37.00
2018-06-15T12:52:16.342Z,37.40
2018-06-15T12:57:18.984Z,36.40
2018-06-15T13:02:21.812Z,35.60
2018-06-15T13:07:24.521Z,34.00
2018-06-15T13:12:27.378Z,32.80
2018-06-15T13:17:30.484Z,32.10
2018-06-15T13:22:33.139Z,30.90
2018-06-15T13:27:35.815Z,30.80
2018-06-15T13:32:38.450Z,31.50
2018-06-15T13:37:41.057Z,32.40
2018-06-15T13:42:43.734Z,31.90
2018-06-15T13:47:46.341Z,33.30
2018-06-15T13:52:49.395Z,32.90
2018-06-15T13:57:52.032Z,33.30
2018-06-15T14:02:54.731Z,33.30
2018-06-15T14:07:57.378Z,33.30
2018-06-15T14:13:00.136Z,33.90
2018-06-15T14:18:07.834Z,35.50
2018-06-15T14:23:10.480Z,37.60
2018-06-15T14:28:13.107Z,38.40
2018-06-15T14:33:15.766Z,38.70
2018-06-15T14:38:18.411Z,36.90
2018-06-15T14:43:21.056Z,37.60
2018-06-15T14:48:25.717Z,38.40
2018-06-15T14:53:28.326Z,39.00
2018-06-15T14:58:31.155Z,37.90
2018-06-15T15:03:33.731Z,38.10
2018-06-15T15:08:36.346Z,38.80
2018-06-15T15:13:38.989Z,39.00
2018-06-15T15:18:41.706Z,38.60
2018-06-15T15:23:44.343Z,38.50
2018-06-15T15:28:47.002Z,39.30
2018-06-15T15:33:49.759Z,39.80
2018-06-15T15:38:52.375Z,39.40
2018-06-15T15:43:55.027Z,39.10
2018-06-15T15:48:57.639Z,38.70
2018-06-15T15:54:01.093Z,38.60
2018-06-15T15:59:03.878Z,39.80
2018-06-15T16:04:06.658Z,38.80
2018-06-15T16:09:09.795Z,38.30
2018-06-15T16:14:12.416Z,37.70
2018-06-15T16:19:15.064Z,38.40
2018-06-15T16:24:17.819Z,37.00
2018-06-15T16:29:20.494Z,37.70
2018-06-15T16:34:23.155Z,37.70
2018-06-15T16:39:29.203Z,37.00
2018-06-15T16:44:32.188Z,35.90
2018-06-15T16:49:34.834Z,36.00
2018-06-15T16:54:37.461Z,35.60
2018-06-15T16:59:40.083Z,35.40
2018-06-15T17:04:42.822Z,34.30
2018-06-15T17:09:45.561Z,34.00
2018-06-15T17:14:48.183Z,33.80
2018-06-15T17:19:50.827Z,34.40
2018-06-15T17:24:53.779Z,33.20
2018-06-15T17:29:56.436Z,31.90
2018-06-15T17:34:59.521Z,30.10
2018-06-15T17:40:02.434Z,28.00
2018-06-15T17:45:05.194Z,27.20
2018-06-15T17:50:07.871Z,27.80
2018-06-15T17:55:10.559Z,28.70
2018-06-15T18:00:13.174Z,27.80
2018-06-15T18:05:15.787Z,26.60
2018-06-15T18:10:18.416Z,26.00
2018-06-15T18:15:21.201Z,25.60
2018-06-15T18:20:23.956Z,24.90
2018-06-15T18:25:26.580Z,24.30
2018-06-15T18:30:29.371Z,23.70
2018-06-15T18:35:31.990Z,23.20
2018-06-15T18:40:34.706Z,22.80
2018-06-15T18:45:37.343Z,22.20
2018-06-15T18:50:39.947Z,21.70
2018-06-15T18:55:42.605Z,21.40
2018-06-15T19:00:45.343Z,21.10
2018-06-15T19:05:48.082Z,20.80
2018-06-15T19:10:50.963Z,21.70
2018-06-15T19:15:53.691Z,19.90
2018-06-15T19:20:56.359Z,19.40
2018-06-15T19:25:59.038Z,19.00
2018-06-15T19:31:02.265Z,18.60
2018-06-15T19:36:04.928Z,18.20
2018-06-15T19:41:07.848Z,18.00
2018-06-15T19:46:10.491Z,17.80
2018-06-15T19:51:13.127Z,17.60
2018-06-15T19:56:16.673Z,17.50
2018-06-15T20:01:19.378Z,17.40
2018-06-15T20:06:22.097Z,17.30
2018-06-15T20:11:24.754Z,17.20
2018-06-15T20:16:27.509Z,17.10
2018-06-15T20:21:30.469Z,16.90
2018-06-15T20:26:33.115Z,16.70
2018-06-15T20:31:35.743Z,16.60
2018-06-15T20:36:38.407Z,16.50
2018-06-15T20:41:41.049Z,16.30
2018-06-15T20:46:43.680Z,16.10
2018-06-15T20:51:46.312Z,15.90
2018-06-15T20:56:48.991Z,15.70
2018-06-15T21:01:51.635Z,15.60
2018-06-15T21:06:54.433Z,15.60
2018-06-15T21:11:57.072Z,15.50
2018-06-15T21:16:59.746Z,15.40
2018-06-15T21:22:02.414Z,15.40
2018-06-15T21:27:05.167Z,15.40
2018-06-15T21:32:07.848Z,15.40
2018-06-15T21:37:10.475Z,15.20
2018-06-15T21:42:14.086Z,15.00
2018-06-15T21:47:16.716Z,14.90
2018-06-15T21:52:19.341Z,15.00
2018-06-15T21:57:22.181Z,14.90
2018-06-15T22:02:25.476Z,14.90
2018-06-15T22:07:28.148Z,14.70
2018-06-15T22:12:30.782Z,17.50
2018-06-15T22:17:33.397Z,14.50
2018-06-15T22:22:36.027Z,14.40
2018-06-15T22:27:38.682Z,14.20
2018-06-15T22:32:41.355Z,14.10
2018-06-15T22:37:44.014Z,13.90
2018-06-15T22:42:46.625Z,13.80
2018-06-15T22:47:49.275Z,13.60
2018-06-15T22:52:51.900Z,13.50
2018-06-15T22:57:54.527Z,13.40
2018-06-15T23:02:57.150Z,13.30
2018-06-15T23:07:59.768Z,13.10
2018-06-15T23:13:02.359Z,13.10
2018-06-15T23:18:05.065Z,13.20
2018-06-15T23:23:07.703Z,13.10
2018-06-15T23:28:10.308Z,13.10
2018-06-15T23:33:13.018Z,12.90
2018-06-15T23:38:15.633Z,12.90
2018-06-15T23:43:18.302Z,12.80
2018-06-15T23:48:20.915Z,12.60
2018-06-15T23:53:23.521Z,12.60
2018-06-15T23:58:26.138Z,12.50
